Airfield :
LOGIN :

Register | Disclaimer

   EN    FR    IT 

 










Legend :    VFR   Marginal VFR   IFR   Intensive IFR   Very Intensive IFR
Visi :
Ceiling :
>= 8 km
>= 3000ft
5 to 8 km
1000 to 3000 ft
1500m to 5 km
500 to 1000 ft
800 to 1500m
200 to 500 ft
< 800m
< 200 ft
Symbols :   Thunderstorms  Fog  Heavy snow  Heavy precipitations  Wind > 20 kt
SIGMETs :     Misc.  Thunderstorms  Icing  Turbulence  Mountain Waves  Volcanic Ashes






- Airport Elevation : 645 ft
- IATA code : DLE


LFGJ - Dole Tavaux

CURRENT METAR :
  • 282300Z AUTO 22014KT 9999 -RA SCT023/// BKN032/// BKN047/// ///TCU 06/05 Q1011

EXPIRED METARs :
  • 282230Z AUTO 23016KT 9999 RA SCT033 BKN039 BKN048 06/05 Q1011
  • 282200Z AUTO 23013KT 9999 -RA FEW023/// SCT033/// BKN047/// ///TCU 06/04 Q1010
  • 282130Z AUTO 23015KT 9999 -RA SCT023/// BKN032/// BKN040/// ///TCU 06/04 Q1010
  • 282100Z AUTO 22008KT 8000 RA OVC025 05/04 Q1011
  • 282030Z AUTO 21014KT 7000 -RA BKN027/// BKN034/// OVC041/// ///TCU 06/04 Q1010

TAF TAF LFGJ
Valid from the 28 at 15:00 until the 29 at 00:00 UTC


281400Z 2815/2824 23017KT 9999 SCT035 BKN100
TEMPO 2815/2824 23020G32KT -SHRA FEW030TCU
PROB30
TEMPO 2815/2821 4000 SHRA FEW030CB



MET'MAP, your aeronautical weather chart ! - Copyright ORBIFLY December 2007 - Disclaimer

ORBIFLY MET'MAP TEAM :

Programming & Development : Alexandra Zaïnal
Concept & original design : Baudouin d'Aumeries
Assistance for programming : Marc-Olivier Méhu
Technical & hardware support : Manuel Goepfert

Contact : metmap@orbifly.com




SOURCES & CREDITS :

   NOAA